Time;durP1;ratioP1;P1;durP2;ratioP2;P2;SDS_P1;SDS_P2;PMS_P1;PMS_P2;Temp;Humidity;BMP_temperature;BMP_pressure;BME280_temperature;BME280_humidity;BME280_pressure;Samples;Min_cycle;Max_cycle;Signal;HPM_P1;HPM_P2
2022/05/25 00:00:27;;;;;;;3.45;2.60;;;15.30;95.10;;;15.28;100.00;100197.47;5015854;28;20061;-74
2022/05/25 00:02:55;;;;;;;5.72;3.83;;;15.40;95.50;;;15.20;100.00;100201.41;5016044;28;20132;-74
2022/05/25 00:05:22;;;;;;;4.88;3.72;;;15.30;96.10;;;15.17;100.00;100208.56;4998817;28;20986;-74
2022/05/25 00:07:50;;;;;;;6.45;4.00;;;15.30;96.30;;;15.08;100.00;100213.41;5015904;28;20045;-74
2022/05/25 00:10:17;;;;;;;6.07;4.10;;;15.30;96.50;;;14.96;100.00;100213.03;5015508;28;20071;-74
2022/05/25 00:12:44;;;;;;;5.28;3.60;;;15.20;96.80;;;15.04;100.00;100218.00;5006515;28;20128;-74
2022/05/25 00:15:13;;;;;;;5.38;4.35;;;15.20;96.60;;;15.16;100.00;100206.84;5029501;28;20057;-74
2022/05/25 00:17:40;;;;;;;5.45;3.40;;;15.10;96.50;;;15.11;100.00;100203.53;5017895;28;20124;-74
2022/05/25 00:20:09;;;;;;;4.57;3.47;;;15.20;96.70;;;15.19;100.00;100205.81;4997040;28;20044;-74
2022/05/25 00:22:48;;;;;;;3.72;3.25;;;15.20;96.70;;;15.11;100.00;100203.53;5017970;28;20053;-74
2022/05/25 00:25:35;;;;;;;5.38;3.47;;;15.20;96.80;;;15.21;100.00;100205.75;5023706;28;20135;-74
2022/05/25 00:28:12;;;;;;;4.43;2.80;;;15.20;96.80;;;15.24;100.00;100209.13;5014993;28;20133;-74
2022/05/25 00:30:41;;;;;;;3.42;1.67;;;15.20;96.50;;;15.20;100.00;100207.53;5014605;28;20594;-74
2022/05/25 00:33:08;;;;;;;2.00;1.75;;;15.30;96.20;;;15.22;100.00;100204.81;4998531;28;20182;-74
2022/05/25 00:35:38;;;;;;;3.38;1.73;;;15.20;96.20;;;15.25;100.00;100210.84;5016448;28;20123;-74
2022/05/25 00:38:08;;;;;;;2.97;2.00;;;15.20;96.00;;;15.27;100.00;100205.47;5030056;28;20053;-74
2022/05/25 00:40:38;;;;;;;2.97;1.52;;;15.30;96.00;;;15.34;100.00;100198.09;5011153;28;20423;-74
2022/05/25 00:43:07;;;;;;;2.97;1.77;;;15.30;95.80;;;15.26;100.00;100206.41;5008390;28;20049;-74
2022/05/25 00:45:40;;;;;;;3.72;1.75;;;15.30;95.90;;;15.37;100.00;100205.91;5015376;28;20053;-74
2022/05/25 00:48:21;;;;;;;4.18;2.33;;;15.20;95.70;;;15.30;100.00;100208.00;5008191;28;20045;-74
2022/05/25 00:53:35;;;;;;;3.85;2.10;;;15.30;96.90;;;15.13;100.00;100212.25;5014117;28;20046;-74
2022/05/25 00:56:05;;;;;;;2.92;1.60;;;15.20;96.80;;;15.10;100.00;100214.22;4997797;28;20046;-74
2022/05/25 00:58:36;;;;;;;2.45;1.60;;;15.20;96.80;;;15.13;100.00;100220.19;5013349;28;20469;-75
2022/05/25 01:01:04;;;;;;;2.90;1.75;;;16.30;96.90;;;15.15;100.00;100217.50;4989396;28;20049;-75
2022/05/25 01:03:32;;;;;;;1.65;1.15;;;15.20;96.80;;;15.14;100.00;100231.69;5014457;28;20128;-75
2022/05/25 01:06:25;;;;;;;2.53;1.25;;;15.20;97.50;;;15.09;100.00;100229.22;5019509;28;20061;-75
2022/05/25 01:09:12;;;;;;;2.05;1.42;;;15.00;97.10;;;15.08;100.00;100235.47;4982406;28;20049;-75
2022/05/25 01:12:07;;;;;;;3.03;1.30;;;15.10;98.40;;;15.04;100.00;100236.53;5017407;28;20046;-75
2022/05/25 01:14:59;;;;;;;1.50;1.10;;;15.30;97.40;;;15.00;100.00;100241.09;5005049;28;20049;-75
2022/05/25 01:17:54;;;;;;;2.38;1.05;;;15.00;97.10;;;14.97;100.00;100241.25;5017863;28;20055;-75
2022/05/25 01:20:36;;;;;;;1.67;1.58;;;14.90;97.10;;;14.86;100.00;100252.31;5025525;28;20061;-75
2022/05/25 01:23:28;;;;;;;2.20;1.25;;;;;;;14.83;100.00;100263.06;5018119;28;20056;-75
2022/05/25 01:26:36;;;;;;;1.90;1.13;;;;;;;14.82;100.00;100261.31;5017611;28;20590;-76
2022/05/25 01:29:22;;;;;;;2.50;1.17;;;15.00;97.00;;;14.82;100.00;100258.66;5017083;28;20079;-75
2022/05/25 01:32:28;;;;;;;1.67;1.48;;;15.60;97.40;;;14.78;100.00;100265.03;5018431;28;20063;-76
2022/05/25 01:35:13;;;;;;;2.00;1.10;;;14.80;97.60;;;14.73;100.00;100262.56;5007110;28;20058;-75
2022/05/25 01:38:00;;;;;;;3.15;1.30;;;15.20;98.20;;;14.69;100.00;100268.91;5016374;28;20049;-75
2022/05/25 01:40:54;;;;;;;2.38;1.33;;;14.60;97.90;;;14.67;100.00;100272.53;5016900;28;20045;-75
2022/05/25 01:43:43;;;;;;;1.90;1.17;;;14.70;98.00;;;14.61;100.00;100274.53;5008877;28;20060;-75
2022/05/25 01:46:23;;;;;;;2.33;1.30;;;14.60;97.90;;;14.65;100.00;100283.19;5017097;28;20061;-75
2022/05/25 01:48:53;;;;;;;;;;;15.90;98.40;;;14.70;100.00;100283.00;5017185;28;20049;-75
2022/05/25 01:51:35;;;;;;;3.50;1.48;;;14.50;99.90;;;14.68;100.00;100282.22;5018318;28;19929;-75
2022/05/25 01:54:09;;;;;;;2.67;1.45;;;15.00;98.20;;;14.61;100.00;100282.47;4994090;28;20115;-76
2022/05/25 01:56:43;;;;;;;3.25;1.30;;;14.70;98.10;;;14.68;100.00;100277.78;5019066;28;20050;-75
2022/05/25 01:59:14;;;;;;;2.58;1.20;;;14.70;98.20;;;14.57;100.00;100277.34;4999626;28;20463;-75
2022/05/25 02:04:50;;;;;;;3.80;1.67;;;14.80;98.30;;;14.65;100.00;100280.56;5014929;28;20049;-75
2022/05/25 02:07:54;;;;;;;1.88;1.38;;;14.70;99.90;;;14.64;100.00;100280.59;5015493;28;20057;-75
2022/05/25 02:10:42;;;;;;;2.88;1.45;;;14.50;98.20;;;14.63;100.00;100278.88;5009707;28;20494;-75
2022/05/25 02:14:02;;;;;;;4.43;1.50;;;14.60;98.40;;;14.59;100.00;100280.78;5016867;28;20037;-75
2022/05/25 02:16:44;;;;;;;2.28;1.38;;;14.60;98.50;;;14.61;100.00;100292.22;5016486;28;20046;-75
2022/05/25 02:19:27;;;;;;;3.10;1.50;;;14.40;98.50;;;14.52;100.00;100285.53;5007285;28;20513;-75
2022/05/25 02:22:42;;;;;;;3.70;1.75;;;14.60;98.60;;;14.59;100.00;100288.75;5017611;28;20049;-75
2022/05/25 02:25:44;;;;;;;1.98;1.42;;;14.50;98.60;;;14.57;100.00;100288.81;4976833;28;20591;-75
2022/05/25 02:28:26;;;;;;;2.13;1.42;;;14.50;98.40;;;14.54;100.00;100290.72;4960824;28;20065;-75
2022/05/25 02:30:58;;;;;;;1.70;1.30;;;14.50;98.60;;;14.47;100.00;100292.78;4960277;28;20054;-75
2022/05/25 02:33:31;;;;;;;3.13;1.40;;;14.50;98.60;;;14.50;100.00;100289.16;4960970;28;20054;-75
2022/05/25 02:36:01;;;;;;;1.20;1.10;;;14.70;98.70;;;14.53;100.00;100289.88;4961508;28;20062;-75
2022/05/25 02:38:28;;;;;;;2.42;1.13;;;17.20;99.30;;;14.45;100.00;100286.69;4940566;28;20397;-75
2022/05/25 02:41:09;;;;;;;2.08;1.38;;;14.50;98.50;;;14.50;100.00;100297.09;4964692;28;20051;-75
2022/05/25 02:43:38;;;;;;;2.55;1.48;;;14.50;98.60;;;14.46;100.00;100299.00;4953846;28;20058;-75
2022/05/25 02:46:08;;;;;;;2.38;1.42;;;14.60;99.20;;;14.48;100.00;100301.59;4969109;28;20495;-75
2022/05/25 02:48:36;;;;;;;1.40;1.27;;;15.10;98.90;;;14.50;100.00;100302.38;4952614;28;20085;-75
2022/05/25 02:51:04;;;;;;;2.42;1.13;;;14.30;99.90;;;14.40;100.00;100300.09;4951936;28;20043;-75
2022/05/25 02:53:31;;;;;;;2.95;1.48;;;14.50;99.90;;;14.45;100.00;100299.91;4969094;28;20479;-75
2022/05/25 02:55:58;;;;;;;2.85;1.48;;;;;;;14.41;100.00;100304.47;5007340;28;20061;-75
2022/05/25 02:58:27;;;;;;;2.63;1.70;;;14.50;98.60;;;14.41;100.00;100303.63;5027056;28;20049;-75
2022/05/25 03:00:55;;;;;;;4.63;1.27;;;14.40;98.50;;;14.33;100.00;100301.28;5026139;28;20045;-75
2022/05/25 03:03:22;;;;;;;2.67;1.30;;;14.40;98.70;;;14.29;100.00;100313.78;5025625;28;20053;-75
2022/05/25 03:05:49;;;;;;;1.65;1.20;;;14.40;98.70;;;14.32;100.00;100307.50;5025796;28;20068;-75
2022/05/25 03:08:17;;;;;;;2.42;1.35;;;14.40;98.60;;;14.17;100.00;100316.91;5024318;28;20041;-75
2022/05/25 03:10:44;;;;;;;4.55;1.90;;;14.30;98.70;;;14.02;100.00;100306.00;5020474;28;20056;-75
2022/05/25 03:13:11;;;;;;;2.40;1.35;;;14.30;99.00;;;14.00;100.00;100314.94;5005833;28;20046;-75
2022/05/25 03:15:39;;;;;;;2.25;1.50;;;14.50;99.10;;;13.96;100.00;100313.31;5005546;28;20444;-75
2022/05/25 03:18:06;;;;;;;2.30;1.27;;;14.10;99.10;;;13.82;100.00;100327.09;5005032;28;20137;-75
2022/05/25 03:20:34;;;;;;;4.35;1.50;;;14.10;99.40;;;13.89;100.00;100324.16;5005716;28;20053;-75
2022/05/25 03:23:01;;;;;;;2.28;1.75;;;14.50;99.40;;;13.86;100.00;100324.28;5007328;28;20408;-75
2022/05/25 03:25:28;;;;;;;6.18;1.52;;;14.30;99.40;;;13.85;100.00;100329.63;5004873;28;20042;-75
2022/05/25 03:27:55;;;;;;;2.65;1.38;;;14.20;99.50;;;13.82;100.00;100329.75;5005431;28;20049;-75
2022/05/25 03:30:22;;;;;;;1.83;1.60;;;14.00;99.40;;;13.82;100.00;100335.91;5025659;28;20037;-75
2022/05/25 03:32:50;;;;;;;1.73;1.30;;;14.60;99.60;;;13.76;100.00;100336.13;5026219;28;20048;-75
2022/05/25 03:35:17;;;;;;;3.03;1.52;;;14.50;99.60;;;13.68;100.00;100328.47;5025028;28;20041;-75
2022/05/25 03:37:44;;;;;;;3.85;1.40;;;13.90;99.30;;;13.77;100.00;100340.47;5026276;28;20056;-75
2022/05/25 03:40:14;;;;;;;2.30;1.70;;;13.80;99.40;;;13.74;100.00;100343.25;5023341;28;20048;-75
2022/05/25 03:42:42;;;;;;;2.08;1.60;;;14.70;99.80;;;13.70;100.00;100342.50;5024864;28;20503;-75
2022/05/25 03:45:11;;;;;;;2.15;1.70;;;13.80;99.70;;;13.73;100.00;100341.53;5024822;28;20045;-75
2022/05/25 03:47:38;;;;;;;2.72;1.27;;;13.80;99.40;;;13.74;100.00;100343.25;5024457;28;20045;-75
2022/05/25 03:50:06;;;;;;;1.70;1.45;;;13.70;99.70;;;13.75;100.00;100348.50;5024079;28;20091;-75
2022/05/25 03:52:34;;;;;;;2.45;1.50;;;13.80;99.80;;;13.75;100.00;100352.91;5024551;28;20406;-75
2022/05/25 03:55:01;;;;;;;2.45;1.65;;;13.80;99.80;;;13.72;100.00;100350.38;5007691;28;20413;-75
2022/05/25 03:57:28;;;;;;;2.90;1.55;;;13.80;99.80;;;13.68;100.00;100349.63;5024954;28;20049;-75
2022/05/25 03:59:55;;;;;;;2.92;1.60;;;13.70;99.70;;;13.71;100.00;100361.88;5020267;28;20470;-75
2022/05/25 04:02:22;;;;;;;3.20;1.60;;;14.40;99.90;;;13.77;100.00;100352.84;5002578;28;20423;-75
2022/05/25 04:05:07;;;;;;;2.40;1.38;;;15.20;99.90;;;13.67;100.00;100362.91;5004942;28;20050;-74
2022/05/25 04:07:46;;;;;;;1.73;1.50;;;13.80;99.50;;;13.64;100.00;100360.38;5006945;28;20502;-74
2022/05/25 04:10:19;;;;;;;2.58;1.52;;;15.20;99.90;;;13.65;100.00;100359.44;5023345;28;20046;-75
2022/05/25 04:12:47;;;;;;;2.28;1.90;;;13.70;99.80;;;13.61;100.00;100367.50;5026695;28;20082;-74
2022/05/25 04:15:19;;;;;;;3.55;1.80;;;13.70;99.60;;;13.63;100.00;100379.78;5025334;28;20037;-76
2022/05/25 04:17:47;;;;;;;4.25;1.48;;;14.30;99.90;;;13.59;100.00;100376.41;5029009;28;20445;-77
2022/05/25 04:20:15;;;;;;;1.88;1.33;;;13.80;99.70;;;13.55;100.00;100380.94;5008953;28;20042;-82
2022/05/25 04:22:43;;;;;;;2.35;1.45;;;;;;;13.44;100.00;100378.69;5014459;28;20034;-77
2022/05/25 04:25:14;;;;;;;2.65;1.40;;;13.50;99.90;;;13.36;100.00;100382.50;5013832;28;20149;-81
2022/05/25 04:27:43;;;;;;;2.80;1.80;;;13.50;99.60;;;13.21;100.00;100384.75;5015794;28;20058;-79
2022/05/25 04:30:16;;;;;;;2.08;1.63;;;13.40;99.50;;;13.26;100.00;100388.09;5030109;28;20057;-81
2022/05/25 04:32:44;;;;;;;3.47;1.55;;;;;;;13.24;100.00;100386.41;5014809;28;20045;-80
2022/05/25 04:35:13;;;;;;;3.42;1.83;;;13.40;99.70;;;13.28;100.00;100391.53;5013680;28;20520;-80
2022/05/25 04:37:52;;;;;;;1.43;1.27;;;13.50;99.90;;;13.26;100.00;100401.31;5011157;28;20041;-78
2022/05/25 04:40:26;;;;;;;3.10;1.90;;;13.40;99.80;;;13.18;100.00;100403.34;4991948;28;20284;-79
2022/05/25 04:42:55;;;;;;;3.60;1.60;;;13.00;99.90;;;13.22;100.00;100402.34;5021906;28;20042;-79
2022/05/25 04:45:28;;;;;;;2.20;1.75;;;13.20;99.90;;;13.23;100.00;100405.81;5025859;28;20115;-81
2022/05/25 04:48:00;;;;;;;2.22;1.75;;;13.30;99.90;;;13.19;100.00;100400.66;5011128;28;20397;-81
2022/05/25 04:50:35;;;;;;;2.03;1.40;;;13.10;99.70;;;13.16;100.00;100413.97;5025605;28;20045;-80
2022/05/25 04:53:03;;;;;;;3.35;1.80;;;13.30;99.90;;;13.19;100.00;100407.72;5008043;28;20053;-80
2022/05/25 04:58:26;;;;;;;1.73;1.63;;;13.30;99.90;;;13.28;100.00;100415.31;5019306;28;20266;-85
2022/05/25 05:00:54;;;;;;;2.97;1.42;;;;;;;13.39;100.00;100428.16;5003189;28;20056;-82
2022/05/25 05:03:25;;;;;;;2.25;1.52;;;13.60;99.90;;;13.39;100.00;100422.88;5039452;28;20403;-82
2022/05/25 05:06:07;;;;;;;1.88;1.30;;;13.40;99.90;;;13.45;100.00;100430.63;5007913;28;20053;-84
2022/05/25 05:08:35;;;;;;;4.00;1.98;;;13.50;99.90;;;13.49;100.00;100428.72;4993734;28;20057;-83
2022/05/25 05:11:12;;;;;;;3.72;1.60;;;13.50;99.90;;;13.54;100.00;100434.75;4995419;28;20053;-84
2022/05/25 05:13:40;;;;;;;2.30;1.70;;;13.50;99.90;;;13.64;100.00;100437.03;5029074;28;20049;-82
2022/05/25 05:16:13;;;;;;;3.08;1.48;;;13.60;99.80;;;13.59;100.00;100442.50;4996372;28;20046;-83
2022/05/25 05:18:42;;;;;;;4.68;1.60;;;13.70;99.90;;;13.69;100.00;100448.31;5013696;28;20045;-82
2022/05/25 05:21:22;;;;;;;10.18;2.00;;;14.10;99.90;;;13.77;100.00;100446.25;5016803;28;20053;-82
2022/05/25 05:23:49;;;;;;;2.08;1.70;;;;;;;13.86;100.00;100458.28;5016536;28;20057;-83
2022/05/25 05:26:18;;;;;;;2.25;1.55;;;;;;;13.94;100.00;100458.00;5016765;28;20109;-82
2022/05/25 05:28:45;;;;;;;2.10;1.80;;;;;;;13.95;100.00;100452.66;5014663;28;20081;-82
2022/05/25 05:31:14;;;;;;;4.65;1.80;;;13.90;99.90;;;13.91;100.00;100451.06;5016065;28;20063;-83
2022/05/25 05:33:42;;;;;;;2.40;1.60;;;;;;;14.05;100.00;100461.13;4998552;28;20045;-82
2022/05/25 05:36:12;;;;;;;3.13;1.67;;;;;;;14.13;100.00;100467.00;5014255;28;20144;-83
2022/05/25 05:39:09;;;;;;;3.25;1.70;;;14.00;99.90;;;14.13;100.00;100467.00;5030266;28;20038;-82
2022/05/25 05:42:03;;;;;;;3.20;2.13;;;14.00;99.90;;;14.26;100.00;100470.03;5013475;28;20049;-81
2022/05/25 05:44:39;;;;;;;6.82;2.00;;;14.30;99.60;;;14.27;100.00;100460.31;5017332;28;20053;-82
2022/05/25 05:47:13;;;;;;;2.85;1.42;;;14.40;99.90;;;14.40;100.00;100474.78;5014103;28;20103;-83
2022/05/25 05:49:41;;;;;;;2.58;1.52;;;;;;;14.46;100.00;100474.59;5012551;28;20056;-82
2022/05/25 05:52:09;;;;;;;1.73;1.30;;;14.50;99.00;;;14.40;100.00;100461.56;5016991;28;20060;-82
2022/05/25 05:54:38;;;;;;;3.55;1.33;;;14.30;98.90;;;14.56;100.00;100474.22;4998517;28;20065;-82
2022/05/25 05:57:06;;;;;;;4.07;1.50;;;14.60;98.80;;;14.66;100.00;100470.28;5015132;28;20120;-80
2022/05/25 05:59:33;;;;;;;4.22;1.60;;;;;;;14.71;100.00;100481.56;5014633;28;20115;-79
2022/05/25 06:02:04;;;;;;;1.30;1.15;;;;;;;14.72;100.00;100483.31;5015516;28;20037;-80
2022/05/25 06:04:31;;;;;;;4.30;1.40;;;;;;;14.80;100.00;100484.81;5032691;28;20123;-80
2022/05/25 06:07:03;;;;;;;2.95;1.40;;;14.80;98.00;;;14.82;100.00;100485.59;5031891;28;20042;-80
2022/05/25 06:09:31;;;;;;;1.27;1.13;;;14.60;99.90;;;14.85;100.00;100494.28;5016329;28;20072;-80
2022/05/25 06:11:58;;;;;;;2.03;1.17;;;;;;;14.97;100.00;100492.94;5015248;28;20045;-80
2022/05/25 06:14:31;;;;;;;3.90;1.17;;;14.90;97.80;;;15.01;100.00;100499.81;5017211;28;20457;-80
2022/05/25 06:19:44;;;;;;;2.55;1.52;;;;;;;15.14;100.00;100500.22;5031510;28;20059;-80
2022/05/25 06:22:15;;;;;;;2.97;1.30;;;15.20;97.40;;;15.20;100.00;100491.09;4994973;28;20054;-80
2022/05/25 06:25:00;;;;;;;3.42;1.60;;;15.40;99.90;;;15.25;100.00;100499.75;4999356;28;20042;-79
2022/05/25 06:27:31;;;;;;;2.00;1.42;;;15.20;97.50;;;15.29;100.00;100493.38;5006515;28;20136;-79
2022/05/25 06:30:01;;;;;;;5.35;1.33;;;;;;;15.37;100.00;100505.44;4998130;28;20058;-80
2022/05/25 06:32:28;;;;;;;;;;;15.30;97.30;;;15.47;100.00;100504.16;5031901;28;20477;-80
2022/05/25 06:34:58;;;;;;;4.15;1.27;;;15.40;97.30;;;15.52;100.00;100518.06;5029400;28;19921;-80
2022/05/25 06:37:26;;;;;;;3.05;1.30;;;15.50;97.30;;;15.51;100.00;100512.84;4998014;28;20053;-79
2022/05/25 06:39:53;;;;;;;1.58;1.20;;;15.50;97.40;;;15.62;100.00;100520.34;5031200;28;20049;-80
2022/05/25 06:42:24;;;;;;;1.75;1.30;;;15.50;97.50;;;15.68;100.00;100520.94;5034005;28;20061;-80
2022/05/25 06:44:56;;;;;;;4.88;1.30;;;15.60;97.10;;;15.68;100.00;100520.94;5012237;28;20041;-78
2022/05/25 06:47:23;;;;;;;2.67;1.17;;;15.70;97.10;;;15.77;100.00;100522.31;5045450;28;20041;-79
2022/05/25 06:49:55;;;;;;;3.70;1.45;;;15.70;97.20;;;15.88;100.00;100530.69;5012564;28;20046;-79
2022/05/25 06:52:23;;;;;;;3.65;1.45;;;15.80;97.10;;;15.94;100.00;100529.59;5025952;28;20064;-80
2022/05/25 06:54:59;;;;;;;3.88;1.75;;;15.80;96.80;;;15.91;100.00;100528.84;5033808;28;20049;-79
2022/05/25 06:57:26;;;;;;;4.35;1.50;;;16.00;96.50;;;16.02;100.00;100537.22;5016593;28;20107;-79
2022/05/25 06:59:54;;;;;;;2.40;1.60;;;16.00;96.30;;;15.96;100.00;100542.78;5015872;28;20053;-79
2022/05/25 07:02:22;;;;;;;5.25;1.42;;;17.30;96.50;;;16.02;100.00;100545.19;5031496;28;20069;-79
2022/05/25 07:04:51;;;;;;;2.97;1.45;;;16.10;95.90;;;16.15;100.00;100543.66;5033433;28;20034;-78
2022/05/25 07:07:18;;;;;;;1.98;1.05;;;16.10;95.40;;;16.13;100.00;100550.84;5032783;28;20057;-78
2022/05/25 07:09:50;;;;;;;4.90;1.20;;;16.10;95.10;;;16.25;100.00;100544.16;5031424;28;20109;-79
2022/05/25 07:12:18;;;;;;;2.65;1.50;;;16.10;95.00;;;16.43;100.00;100552.22;4998159;28;20064;-78
2022/05/25 07:14:45;;;;;;;3.95;1.70;;;16.20;95.50;;;16.36;100.00;100551.63;5014287;28;20108;-79
2022/05/25 07:17:13;;;;;;;2.50;2.00;;;16.50;95.10;;;16.57;100.00;100548.91;5011700;28;20045;-77
2022/05/25 07:19:40;;;;;;;2.58;1.20;;;16.40;95.00;;;16.56;100.00;100553.38;5011856;28;20042;-80
2022/05/25 07:22:11;;;;;;;2.78;1.42;;;16.40;94.60;;;16.63;100.00;100547.75;5014599;28;20054;-79
2022/05/25 07:24:45;;;;;;;4.63;1.60;;;16.50;94.50;;;16.61;100.00;100553.13;5015959;28;20128;-79
2022/05/25 07:27:12;;;;;;;2.28;1.45;;;16.50;94.30;;;16.91;100.00;100552.63;5013479;28;20053;-78
2022/05/25 07:29:40;;;;;;;3.10;1.60;;;16.70;94.90;;;16.90;100.00;100550.91;5032655;28;20053;-77
2022/05/25 07:32:11;;;;;;;3.58;1.40;;;16.70;94.80;;;16.97;100.00;100548.81;5032652;28;20053;-77
2022/05/25 07:34:45;;;;;;;3.28;1.50;;;16.80;94.30;;;17.11;100.00;100557.03;4999452;28;20049;-78
2022/05/25 07:37:17;;;;;;;3.20;1.38;;;16.80;94.50;;;16.97;95.68;100543.50;5031736;28;20099;-77
2022/05/25 07:40:29;;;;;;;2.38;1.13;;;16.90;93.60;;;17.01;93.95;100548.63;4993955;28;20042;-77
2022/05/25 07:43:02;;;;;;;3.33;1.50;;;16.90;93.40;;;17.35;94.81;100559.44;4996131;28;20072;-79
2022/05/25 07:45:30;;;;;;;2.00;1.25;;;17.00;93.60;;;17.35;90.71;100563.88;5009121;28;20118;-78
2022/05/25 07:47:57;;;;;;;2.60;1.33;;;17.10;93.10;;;17.50;93.45;100563.13;4992719;28;20562;-78
2022/05/25 07:50:24;;;;;;;2.75;1.20;;;17.20;93.50;;;17.51;89.38;100562.19;5010063;28;20054;-79
2022/05/25 07:52:55;;;;;;;3.70;1.50;;;17.30;92.90;;;17.39;90.56;100557.47;5025761;28;20126;-79
2022/05/25 07:55:22;;;;;;;4.90;1.52;;;17.30;92.80;;;17.37;89.35;100554.03;4996615;28;20140;-79
2022/05/25 07:57:50;;;;;;;2.47;1.48;;;17.40;92.60;;;17.47;86.70;100560.63;5012652;28;20049;-76
2022/05/25 08:00:20;;;;;;;3.95;1.65;;;17.30;92.40;;;17.54;83.26;100551.38;5013673;28;20046;-79
2022/05/25 08:05:46;;;;;;;4.85;1.60;;;17.50;91.40;;;17.88;73.71;100566.59;5030776;28;20473;-78
2022/05/25 08:08:23;;;;;;;2.95;1.40;;;17.70;91.10;;;17.95;79.72;100560.00;5018940;28;20060;-79
2022/05/25 08:11:06;;;;;;;2.72;1.30;;;17.70;91.60;;;17.91;67.74;100561.94;5032013;28;20077;-79
2022/05/25 08:13:38;;;;;;;1.48;1.00;;;17.80;90.20;;;17.79;63.44;100554.59;4990402;28;20050;-78
2022/05/25 08:16:09;;;;;;;4.93;1.85;;;17.70;88.20;;;17.78;73.08;100553.75;5006602;28;20056;-78
2022/05/25 08:18:37;;;;;;;2.67;1.35;;;17.60;92.10;;;17.90;74.46;100543.41;5005185;28;20038;-78
2022/05/25 08:21:05;;;;;;;3.22;1.40;;;17.70;90.60;;;17.91;73.06;100545.97;5005371;28;20803;-78
2022/05/25 08:23:33;;;;;;;2.05;1.30;;;17.80;90.40;;;17.97;75.73;100542.13;5006245;28;20044;-78
2022/05/25 08:26:00;;;;;;;5.72;1.83;;;17.80;90.70;;;17.98;71.61;100550.06;4989334;28;20137;-77
2022/05/25 08:28:27;;;;;;;2.15;1.20;;;17.80;90.20;;;18.07;71.05;100551.41;5006804;28;20046;-77
2022/05/25 08:30:55;;;;;;;1.27;1.02;;;17.90;90.10;;;18.05;72.94;100555.94;5000671;28;20055;-77
2022/05/25 08:33:23;;;;;;;1.52;1.00;;;17.90;90.20;;;18.07;72.89;100558.50;5012000;28;20065;-77
2022/05/25 08:35:50;;;;;;;3.33;1.17;;;18.00;90.10;;;18.16;74.80;100549.19;5028426;28;20136;-78
2022/05/25 08:38:21;;;;;;;2.22;1.35;;;18.00;90.40;;;18.23;76.25;100548.75;5013060;28;20041;-78
2022/05/25 08:40:50;;;;;;;1.65;1.20;;;18.00;90.60;;;18.35;66.06;100562.38;5026938;28;20049;-80
2022/05/25 08:43:24;;;;;;;4.40;1.13;;;18.20;88.40;;;18.33;66.00;100556.28;5043093;28;20061;-78
2022/05/25 08:45:58;;;;;;;2.15;1.08;;;18.20;88.00;;;18.32;64.63;100554.56;5026499;28;20130;-79
2022/05/25 08:48:27;;;;;;;7.53;1.40;;;18.30;87.30;;;18.49;60.09;100564.28;5026967;28;20037;-80
2022/05/25 08:51:11;;;;;;;3.40;1.30;;;18.30;86.00;;;18.58;65.39;100561.13;5011381;28;20738;-78
2022/05/25 08:53:40;;;;;;;2.53;1.13;;;18.30;87.70;;;18.56;68.31;100553.22;5008422;28;20062;-78
2022/05/25 08:56:44;;;;;;;3.92;1.38;;;18.40;88.40;;;18.67;63.78;100562.44;5025959;28;20068;-80
2022/05/25 08:59:35;;;;;;;1.95;1.00;;;18.50;87.70;;;18.83;60.77;100551.78;5039244;28;20045;-79
2022/05/25 09:02:46;;;;;;;3.22;1.30;;;18.60;85.80;;;18.89;60.83;100548.78;5002739;28;20119;-79
2022/05/25 09:05:34;;;;;;;3.00;1.20;;;18.70;85.60;;;18.78;56.35;100560.03;5019036;28;20656;-80
2022/05/25 09:08:52;;;;;;;4.47;1.17;;;18.70;83.00;;;18.83;58.07;100563.31;5021285;28;20045;-80
2022/05/25 09:11:45;;;;;;;1.98;1.10;;;18.30;83.40;;;18.85;58.76;100549.91;5026666;28;20453;-80
2022/05/25 09:14:49;;;;;;;1.45;1.17;;;18.70;84.00;;;19.08;56.68;100566.41;5010947;28;20525;-78
2022/05/25 09:17:45;;;;;;;2.25;1.13;;;18.80;83.20;;;19.12;54.84;100549.28;5026617;28;20080;-80
2022/05/25 09:20:21;;;;;;;3.85;1.33;;;18.90;82.10;;;19.12;58.03;100558.16;5018931;28;20486;-79
2022/05/25 09:22:52;;;;;;;2.45;0.95;;;18.90;83.30;;;19.22;55.87;100565.66;5005372;28;20438;-78
2022/05/25 09:25:23;;;;;;;3.08;1.15;;;19.00;82.40;;;19.25;53.62;100552.13;5027543;28;20144;-78
2022/05/25 09:28:03;;;;;;;1.80;0.88;;;19.00;80.90;;;19.41;50.97;100563.63;5030197;28;20045;-78
2022/05/25 09:30:32;;;;;;;;;;;19.10;78.90;;;19.39;49.36;100567.34;5009342;28;20045;-79
2022/05/25 09:33:16;;;;;;;2.07;0.97;;;19.20;77.60;;;19.26;50.76;100577.84;5011509;28;19932;-80
2022/05/25 09:36:40;;;;;;;3.25;1.30;;;19.20;78.10;;;19.44;51.91;100559.06;5013138;28;20046;-78
2022/05/25 09:39:32;;;;;;;3.22;0.90;;;19.20;78.80;;;19.57;48.28;100568.06;5020663;28;20064;-79
2022/05/25 09:42:06;;;;;;;1.52;1.23;;;19.30;76.00;;;19.74;46.36;100574.22;5030133;28;20045;-78
2022/05/25 09:44:33;;;;;;;1.98;1.38;;;19.40;74.40;;;19.65;45.69;100580.97;5015043;28;20041;-80
2022/05/25 09:47:05;;;;;;;2.25;0.80;;;19.50;73.00;;;19.71;46.65;100564.56;5030259;28;20142;-79
2022/05/25 09:49:44;;;;;;;2.50;1.00;;;19.50;73.90;;;19.79;46.85;100572.13;4997644;28;20115;-79
2022/05/25 09:52:37;;;;;;;3.10;0.93;;;19.60;73.50;;;20.05;46.44;100564.41;4998105;28;20060;-79
2022/05/25 09:55:32;;;;;;;1.38;0.65;;;19.70;73.60;;;20.12;43.69;100577.28;5016117;28;20100;-78
2022/05/25 09:58:04;;;;;;;2.25;0.90;;;19.90;70.30;;;20.20;43.58;100575.94;4993520;28;20757;-82
2022/05/25 10:01:03;;;;;;;1.65;0.63;;;19.40;72.60;;;20.36;44.94;100560.69;5005455;28;20060;-80
2022/05/25 10:03:44;;;;;;;3.70;1.25;;;20.00;70.00;;;20.47;44.37;100577.88;5035723;28;20053;-81
2022/05/25 10:06:52;;;;;;;9.43;5.65;;;20.20;70.00;;;20.57;44.27;100580.81;5017530;28;20072;-81
2022/05/25 10:09:24;;;;;;;4.05;2.00;;;20.30;70.00;;;20.51;45.38;100572.25;4985917;28;20046;-79
2022/05/25 10:11:57;;;;;;;2.65;0.90;;;20.30;70.50;;;20.63;45.43;100572.44;5012561;28;20046;-79
2022/05/25 10:14:33;;;;;;;1.70;1.27;;;20.40;70.70;;;20.61;43.68;100569.00;5028137;28;20049;-77
2022/05/25 10:17:11;;;;;;;1.75;1.00;;;20.50;68.30;;;20.57;42.68;100562.97;5011340;28;20119;-78
2022/05/25 10:19:52;;;;;;;2.90;1.30;;;20.50;66.90;;;20.65;44.52;100560.66;5028308;28;20061;-76
2022/05/25 10:22:44;;;;;;;1.92;0.90;;;20.50;68.80;;;20.88;44.07;100566.41;5029988;28;20137;-76
2022/05/25 10:25:45;;;;;;;4.32;1.02;;;20.60;68.70;;;20.80;42.75;100560.66;5030029;28;20045;-77
2022/05/25 10:28:44;;;;;;;1.73;1.00;;;20.70;66.40;;;20.96;43.05;100550.72;5030258;28;20053;-81
2022/05/25 10:37:15;;;;;;;;;;;20.90;64.50;;;21.35;42.47;100552.69;5053247;28;20037;-76
2022/05/25 10:39:52;;;;;;;3.35;1.23;;;21.00;65.90;;;21.12;41.34;100565.75;5038242;28;20468;-77
2022/05/25 10:42:29;;;;;;;1.60;1.00;;;21.10;64.20;;;21.28;41.17;100543.34;5029951;28;20059;-77
2022/05/25 10:45:21;;;;;;;2.58;1.00;;;21.10;64.20;;;21.27;41.10;100547.84;5013323;28;20084;-80
2022/05/25 10:47:52;;;;;;;2.80;1.50;;;21.10;63.70;;;21.34;41.30;100548.31;5014947;28;20150;-75
2022/05/25 10:50:58;;;;;;;2.30;0.90;;;21.10;63.60;;;21.46;40.69;100551.97;5028926;28;20064;-77
2022/05/25 10:56:56;;;;;;;;;;;21.20;64.00;;;21.79;40.91;100540.84;5029891;28;20072;-74
2022/05/25 11:00:00;;;;;;;1.48;0.93;;;21.40;63.10;;;21.51;40.33;100548.03;5011019;28;20380;-75
2022/05/25 11:03:16;;;;;;;1.77;0.82;;;21.40;61.90;;;21.50;41.47;100557.03;5028619;28;20095;-76
2022/05/25 11:06:08;;;;;;;1.73;0.90;;;21.30;62.80;;;21.82;41.25;100545.09;5026172;28;20577;-75
2022/05/25 11:09:30;;;;;;;1.65;0.63;;;21.40;63.20;;;21.78;40.53;100547.16;5021751;28;20789;-76
2022/05/25 11:12:08;;;;;;;2.05;0.80;;;21.50;62.00;;;21.58;40.35;100552.94;5014190;28;20050;-74